Terminal Aerodrome Forecast
Issued by NWS Mobile, AL

Home | Current Version | Previous Version | Text Only | Print | Product List | Glossary On
Versions: 1 2 3 4 5 6 7 8 9 10 11 12 13 14 15 16 17 18 19 20 21 22 23 24 25 26 27 28 29 30 31 32 33 34 35 36
728
FTUS44 KMOB 162325
TAFMOB
TAF
KMOB 162325Z 1700/1724 15009KT P6SM FEW030 FEW100
     FM170400 14006KT 4SM BR SCT004 BKN025
     FM170800 15005KT 2SM BR OVC004
      TEMPO 1709/1712 1/2SM FG
     FM171800 18010KT P6SM BKN050=

USA.gov is the U.S. government's official web portal to all federal, state and local government web resources and services.